sensor_id;sensor_type;location;lat;lon;timestamp;pressure;altitude;pressure_sealevel;temperature;humidity
53011;BME280;42803;55.762;38.084;2023-04-10T00:00:31;100472.75;;;3.81;78.21
53011;BME280;42803;55.762;38.084;2023-04-10T00:03:05;100471.09;;;3.89;78.15
53011;BME280;42803;55.762;38.084;2023-04-10T00:05:35;100475.16;;;3.94;77.68
53011;BME280;42803;55.762;38.084;2023-04-10T00:08:09;100473.09;;;3.99;77.69
53011;BME280;42803;55.762;38.084;2023-04-10T00:10:39;100469.38;;;4.04;76.74
53011;BME280;42803;55.762;38.084;2023-04-10T00:13:11;100473.84;;;4.05;76.57
53011;BME280;42803;55.762;38.084;2023-04-10T00:15:46;100469.59;;;4.05;76.10
53011;BME280;42803;55.762;38.084;2023-04-10T00:18:17;100469.97;;;4.08;76.49
53011;BME280;42803;55.762;38.084;2023-04-10T00:20:52;100470.69;;;4.07;76.42
53011;BME280;42803;55.762;38.084;2023-04-10T00:23:21;100471.81;;;3.95;76.56
53011;BME280;42803;55.762;38.084;2023-04-10T00:25:52;100483.66;;;3.93;76.62
53011;BME280;42803;55.762;38.084;2023-04-10T00:28:21;100479.41;;;3.86;76.93
53011;BME280;42803;55.762;38.084;2023-04-10T00:30:52;100479.22;;;3.85;77.58
53011;BME280;42803;55.762;38.084;2023-04-10T00:33:21;100476.47;;;3.83;77.84
53011;BME280;42803;55.762;38.084;2023-04-10T00:35:51;100476.84;;;3.79;77.90
53011;BME280;42803;55.762;38.084;2023-04-10T00:38:21;100483.69;;;3.72;78.21
53011;BME280;42803;55.762;38.084;2023-04-10T00:40:51;100483.31;;;3.69;78.65
53011;BME280;42803;55.762;38.084;2023-04-10T00:43:21;100492.88;;;3.70;79.14
53011;BME280;42803;55.762;38.084;2023-04-10T00:45:52;100494.38;;;3.67;78.91
53011;BME280;42803;55.762;38.084;2023-04-10T00:48:23;100486.25;;;3.72;79.15
53011;BME280;42803;55.762;38.084;2023-04-10T00:50:53;100485.34;;;3.71;79.55
53011;BME280;42803;55.762;38.084;2023-04-10T00:53:23;100488.09;;;3.73;79.51
53011;BME280;42803;55.762;38.084;2023-04-10T00:55:54;100488.09;;;3.73;78.83
53011;BME280;42803;55.762;38.084;2023-04-10T00:58:27;100484.44;;;3.71;78.97
53011;BME280;42803;55.762;38.084;2023-04-10T01:01:00;100473.88;;;3.76;79.73
53011;BME280;42803;55.762;38.084;2023-04-10T01:03:34;100482.53;;;3.84;79.95
53011;BME280;42803;55.762;38.084;2023-04-10T01:06:10;100479.22;;;3.85;79.61
53011;BME280;42803;55.762;38.084;2023-04-10T01:08:58;100475.53;;;3.83;79.32
53011;BME280;42803;55.762;38.084;2023-04-10T01:11:45;100472.22;;;3.91;80.25
53011;BME280;42803;55.762;38.084;2023-04-10T01:14:26;100479.56;;;3.95;79.89
53011;BME280;42803;55.762;38.084;2023-04-10T01:17:06;100473.50;;;3.87;79.36
53011;BME280;42803;55.762;38.084;2023-04-10T01:19:55;100477.75;;;3.80;78.97
53011;BME280;42803;55.762;38.084;2023-04-10T01:22:33;100480.72;;;3.76;79.43
53011;BME280;42803;55.762;38.084;2023-04-10T01:25:20;100472.59;;;3.73;79.38
53011;BME280;42803;55.762;38.084;2023-04-10T01:28:10;100477.00;;;3.81;79.46
53011;BME280;42803;55.762;38.084;2023-04-10T01:30:46;100478.66;;;3.87;79.67
53011;BME280;42803;55.762;38.084;2023-04-10T01:33:18;100483.84;;;3.87;79.47
53011;BME280;42803;55.762;38.084;2023-04-10T01:35:53;100479.94;;;3.91;78.82
53011;BME280;42803;55.762;38.084;2023-04-10T01:38:23;100487.69;;;3.98;79.01
53011;BME280;42803;55.762;38.084;2023-04-10T01:40:58;100475.84;;;4.07;79.07
53011;BME280;42803;55.762;38.084;2023-04-10T01:43:31;100479.53;;;4.17;78.41
53011;BME280;42803;55.762;38.084;2023-04-10T01:46:04;100476.56;;;4.21;78.33
53011;BME280;42803;55.762;38.084;2023-04-10T01:48:36;100476.19;;;4.18;78.08
53011;BME280;42803;55.762;38.084;2023-04-10T01:51:07;100473.25;;;4.14;78.05
53011;BME280;42803;55.762;38.084;2023-04-10T01:53:37;100472.53;;;4.08;78.09
53011;BME280;42803;55.762;38.084;2023-04-10T01:56:09;100478.06;;;4.04;77.96
53011;BME280;42803;55.762;38.084;2023-04-10T01:58:45;100476.06;;;4.02;78.58
53011;BME280;42803;55.762;38.084;2023-04-10T02:01:19;100470.28;;;4.11;78.75
53011;BME280;42803;55.762;38.084;2023-04-10T02:03:57;100467.41;;;4.01;78.03
53011;BME280;42803;55.762;38.084;2023-04-10T02:06:39;100467.56;;;3.96;78.58
53011;BME280;42803;55.762;38.084;2023-04-10T02:09:15;100464.06;;;4.02;79.02
53011;BME280;42803;55.762;38.084;2023-04-10T02:11:53;100472.75;;;3.96;77.97
53011;BME280;42803;55.762;38.084;2023-04-10T02:14:31;100468.72;;;3.90;77.70
53011;BME280;42803;55.762;38.084;2023-04-10T02:17:05;100466.50;;;3.86;77.83
53011;BME280;42803;55.762;38.084;2023-04-10T02:19:39;100470.91;;;3.87;78.08
53011;BME280;42803;55.762;38.084;2023-04-10T02:22:13;100464.66;;;3.85;77.68
53011;BME280;42803;55.762;38.084;2023-04-10T02:24:43;100465.75;;;3.87;78.32
53011;BME280;42803;55.762;38.084;2023-04-10T02:27:13;100463.16;;;3.87;78.56
53011;BME280;42803;55.762;38.084;2023-04-10T02:29:45;100467.78;;;3.90;78.61
53011;BME280;42803;55.762;38.084;2023-04-10T02:32:17;100459.28;;;3.91;78.26
53011;BME280;42803;55.762;38.084;2023-04-10T02:34:46;100468.72;;;3.90;78.75
53011;BME280;42803;55.762;38.084;2023-04-10T02:37:18;100476.44;;;3.90;80.03
53011;BME280;42803;55.762;38.084;2023-04-10T02:39:50;100477.00;;;3.81;79.05
53011;BME280;42803;55.762;38.084;2023-04-10T02:42:21;100470.94;;;3.73;79.23
53011;BME280;42803;55.762;38.084;2023-04-10T02:44:53;100468.34;;;3.73;80.05
53011;BME280;42803;55.762;38.084;2023-04-10T02:47:24;100482.38;;;3.68;80.08
53011;BME280;42803;55.762;38.084;2023-04-10T02:49:53;100489.22;;;3.67;80.81
53011;BME280;42803;55.762;38.084;2023-04-10T02:52:29;100491.06;;;3.69;81.00
53011;BME280;42803;55.762;38.084;2023-04-10T02:54:59;100479.06;;;3.76;80.78
53011;BME280;42803;55.762;38.084;2023-04-10T02:57:33;100488.25;;;3.88;80.50
53011;BME280;42803;55.762;38.084;2023-04-10T03:00:03;100478.44;;;4.00;80.19
53011;BME280;42803;55.762;38.084;2023-04-10T03:02:55;100482.81;;;4.15;79.89
53011;BME280;42803;55.762;38.084;2023-04-10T03:05:30;100483.34;;;4.27;79.11
53011;BME280;42803;55.762;38.084;2023-04-10T03:08:01;100475.41;;;4.33;78.68
53011;BME280;42803;55.762;38.084;2023-04-10T03:10:32;100475.00;;;4.37;78.31
53011;BME280;42803;55.762;38.084;2023-04-10T03:13:02;100489.97;;;4.39;78.28
53011;BME280;42803;55.762;38.084;2023-04-10T03:15:46;100485.13;;;4.43;78.50
53011;BME280;42803;55.762;38.084;2023-04-10T03:18:21;100482.34;;;4.48;77.96
53011;BME280;42803;55.762;38.084;2023-04-10T03:20:53;100479.91;;;4.57;77.47
53011;BME280;42803;55.762;38.084;2023-04-10T03:23:23;100480.19;;;4.74;77.49
53011;BME280;42803;55.762;38.084;2023-04-10T03:25:54;100473.09;;;4.87;76.88
53011;BME280;42803;55.762;38.084;2023-04-10T03:28:28;100474.84;;;5.03;76.70
53011;BME280;42803;55.762;38.084;2023-04-10T03:30:57;100482.34;;;5.16;76.18
53011;BME280;42803;55.762;38.084;2023-04-10T03:33:34;100479.53;;;5.21;75.50
53011;BME280;42803;55.762;38.084;2023-04-10T03:36:07;100479.31;;;5.27;75.41
53011;BME280;42803;55.762;38.084;2023-04-10T03:38:38;100482.94;;;5.36;74.77
53011;BME280;42803;55.762;38.084;2023-04-10T03:41:11;100481.03;;;5.42;74.70
53011;BME280;42803;55.762;38.084;2023-04-10T03:43:41;100474.53;;;5.46;74.50
53011;BME280;42803;55.762;38.084;2023-04-10T03:46:10;100469.13;;;5.51;74.48
53011;BME280;42803;55.762;38.084;2023-04-10T03:48:46;100473.06;;;5.63;73.96
53011;BME280;42803;55.762;38.084;2023-04-10T03:51:17;100475.88;;;5.81;73.06
53011;BME280;42803;55.762;38.084;2023-04-10T03:53:46;100473.91;;;5.94;72.64
53011;BME280;42803;55.762;38.084;2023-04-10T03:56:18;100475.09;;;6.05;72.27
53011;BME280;42803;55.762;38.084;2023-04-10T03:58:47;100471.34;;;6.10;71.97
53011;BME280;42803;55.762;38.084;2023-04-10T04:01:17;100475.38;;;6.15;71.82
53011;BME280;42803;55.762;38.084;2023-04-10T04:04:00;100474.19;;;6.20;71.98
53011;BME280;42803;55.762;38.084;2023-04-10T04:06:49;100479.47;;;6.29;71.72
53011;BME280;42803;55.762;38.084;2023-04-10T04:09:48;100483.50;;;6.34;71.70
53011;BME280;42803;55.762;38.084;2023-04-10T04:12:25;100480.47;;;6.38;71.66
53011;BME280;42803;55.762;38.084;2023-04-10T04:15:16;100492.34;;;6.36;71.39
53011;BME280;42803;55.762;38.084;2023-04-10T04:18:12;100489.09;;;6.46;71.12
53011;BME280;42803;55.762;38.084;2023-04-10T04:20:49;100484.81;;;6.46;71.66
53011;BME280;42803;55.762;38.084;2023-04-10T04:23:42;100482.47;;;6.25;72.98
53011;BME280;42803;55.762;38.084;2023-04-10T04:26:32;100490.56;;;5.96;73.13
53011;BME280;42803;55.762;38.084;2023-04-10T04:29:23;100488.78;;;5.88;73.61
53011;BME280;42803;55.762;38.084;2023-04-10T04:32:10;100484.72;;;5.83;74.43
53011;BME280;42803;55.762;38.084;2023-04-10T04:35:12;100493.00;;;5.87;74.72
53011;BME280;42803;55.762;38.084;2023-04-10T04:37:59;100488.16;;;5.91;75.14
53011;BME280;42803;55.762;38.084;2023-04-10T04:40:50;100491.31;;;5.95;74.47
53011;BME280;42803;55.762;38.084;2023-04-10T04:43:40;100493.53;;;6.15;74.49
53011;BME280;42803;55.762;38.084;2023-04-10T04:46:36;100487.16;;;6.36;74.66
53011;BME280;42803;55.762;38.084;2023-04-10T04:49:24;100482.31;;;6.55;74.04
53011;BME280;42803;55.762;38.084;2023-04-10T04:52:13;100484.53;;;6.83;72.96
53011;BME280;42803;55.762;38.084;2023-04-10T04:55:01;100485.41;;;7.00;71.88
53011;BME280;42803;55.762;38.084;2023-04-10T04:57:56;100489.63;;;7.15;71.78
53011;BME280;42803;55.762;38.084;2023-04-10T05:00:45;100484.16;;;7.45;70.96
53011;BME280;42803;55.762;38.084;2023-04-10T05:03:30;100472.19;;;7.72;70.02
53011;BME280;42803;55.762;38.084;2023-04-10T05:06:30;100485.75;;;7.94;69.48
53011;BME280;42803;55.762;38.084;2023-04-10T05:09:18;100479.06;;;8.22;68.78
53011;BME280;42803;55.762;38.084;2023-04-10T05:12:15;100480.97;;;8.58;67.63
53011;BME280;42803;55.762;38.084;2023-04-10T05:14:59;100477.31;;;8.90;66.57
53011;BME280;42803;55.762;38.084;2023-04-10T05:18:02;100485.53;;;9.21;65.38
53011;BME280;42803;55.762;38.084;2023-04-10T05:20:55;100484.16;;;9.61;63.84
53011;BME280;42803;55.762;38.084;2023-04-10T05:23:44;100487.09;;;10.00;63.18
53011;BME280;42803;55.762;38.084;2023-04-10T05:26:34;100492.84;;;10.42;61.76
53011;BME280;42803;55.762;38.084;2023-04-10T05:29:25;100489.09;;;10.68;61.79
53011;BME280;42803;55.762;38.084;2023-04-10T05:32:20;100492.56;;;11.15;60.58
53011;BME280;42803;55.762;38.084;2023-04-10T05:35:06;100484.63;;;11.23;57.49
53011;BME280;42803;55.762;38.084;2023-04-10T05:37:53;100485.44;;;11.33;56.94
53011;BME280;42803;55.762;38.084;2023-04-10T05:40:31;100485.53;;;11.53;55.90
53011;BME280;42803;55.762;38.084;2023-04-10T05:43:29;100487.16;;;11.82;55.30
53011;BME280;42803;55.762;38.084;2023-04-10T05:46:23;100490.78;;;11.92;55.07
53011;BME280;42803;55.762;38.084;2023-04-10T05:49:13;100491.00;;;11.85;54.88
53011;BME280;42803;55.762;38.084;2023-04-10T05:52:09;100497.81;;;11.83;55.15
53011;BME280;42803;55.762;38.084;2023-04-10T05:54:57;100493.31;;;11.82;55.46
53011;BME280;42803;55.762;38.084;2023-04-10T05:58:00;100494.75;;;11.79;55.72
53011;BME280;42803;55.762;38.084;2023-04-10T06:01:13;100489.47;;;11.87;55.56
53011;BME280;42803;55.762;38.084;2023-04-10T06:03:54;100493.66;;;11.56;54.94
53011;BME280;42803;55.762;38.084;2023-04-10T06:06:25;100492.34;;;11.61;55.21
53011;BME280;42803;55.762;38.084;2023-04-10T06:08:55;100493.84;;;11.78;54.46
53011;BME280;42803;55.762;38.084;2023-04-10T06:11:25;100495.13;;;11.73;53.74
53011;BME280;42803;55.762;38.084;2023-04-10T06:16:45;100492.34;;;11.61;54.06
53011;BME280;42803;55.762;38.084;2023-04-10T06:19:16;100498.69;;;11.44;55.25
53011;BME280;42803;55.762;38.084;2023-04-10T06:21:45;100497.91;;;11.45;55.23
53011;BME280;42803;55.762;38.084;2023-04-10T06:24:14;100493.16;;;11.31;54.82
53011;BME280;42803;55.762;38.084;2023-04-10T06:26:47;100490.03;;;11.35;54.93
53011;BME280;42803;55.762;38.084;2023-04-10T06:29:16;100492.47;;;11.63;54.38
53011;BME280;42803;55.762;38.084;2023-04-10T06:31:46;100493.09;;;11.89;54.10
53011;BME280;42803;55.762;38.084;2023-04-10T06:34:17;100495.53;;;12.27;53.41
53011;BME280;42803;55.762;38.084;2023-04-10T06:36:58;100489.22;;;12.66;52.59
53011;BME280;42803;55.762;38.084;2023-04-10T06:39:28;100485.75;;;13.28;51.64
53011;BME280;42803;55.762;38.084;2023-04-10T06:41:57;100488.06;;;13.68;50.31
53011;BME280;42803;55.762;38.084;2023-04-10T06:45:03;100493.00;;;13.97;49.15
53011;BME280;42803;55.762;38.084;2023-04-10T06:47:35;100492.72;;;13.50;49.64
53011;BME280;42803;55.762;38.084;2023-04-10T06:50:06;100496.47;;;13.21;50.20
53011;BME280;42803;55.762;38.084;2023-04-10T06:52:35;100495.94;;;13.15;50.37
53011;BME280;42803;55.762;38.084;2023-04-10T06:55:05;100505.16;;;13.10;50.20
53011;BME280;42803;55.762;38.084;2023-04-10T06:57:35;100503.50;;;12.90;50.85
53011;BME280;42803;55.762;38.084;2023-04-10T07:00:05;100501.78;;;12.70;51.03
53011;BME280;42803;55.762;38.084;2023-04-10T07:02:34;100510.59;;;12.60;51.23
53011;BME280;42803;55.762;38.084;2023-04-10T07:05:06;100502.06;;;12.73;51.53
53011;BME280;42803;55.762;38.084;2023-04-10T07:07:35;100506.78;;;12.87;51.28
53011;BME280;42803;55.762;38.084;2023-04-10T07:10:05;100501.25;;;12.84;50.91
53011;BME280;42803;55.762;38.084;2023-04-10T07:12:34;100502.59;;;12.79;51.29
53011;BME280;42803;55.762;38.084;2023-04-10T07:15:05;100505.44;;;12.92;51.19
53011;BME280;42803;55.762;38.084;2023-04-10T07:17:34;100504.25;;;13.09;50.66
53011;BME280;42803;55.762;38.084;2023-04-10T07:20:06;100505.97;;;13.51;49.88
53011;BME280;42803;55.762;38.084;2023-04-10T07:22:36;100500.63;;;13.94;49.22
53011;BME280;42803;55.762;38.084;2023-04-10T07:25:08;100500.03;;;14.42;48.46
53011;BME280;42803;55.762;38.084;2023-04-10T07:27:38;100490.88;;;14.70;47.98
53011;BME280;42803;55.762;38.084;2023-04-10T07:30:08;100498.25;;;14.52;47.73
53011;BME280;42803;55.762;38.084;2023-04-10T07:32:40;100495.88;;;14.55;48.17
53011;BME280;42803;55.762;38.084;2023-04-10T07:35:11;100502.44;;;14.84;47.61
53011;BME280;42803;55.762;38.084;2023-04-10T07:37:41;100492.63;;;15.28;47.57
53011;BME280;42803;55.762;38.084;2023-04-10T07:40:11;100484.41;;;15.35;46.02
53011;BME280;42803;55.762;38.084;2023-04-10T07:42:40;100483.47;;;15.47;45.86
53011;BME280;42803;55.762;38.084;2023-04-10T07:45:12;100496.97;;;15.51;45.65
53011;BME280;42803;55.762;38.084;2023-04-10T07:47:44;100493.19;;;15.48;45.50
53011;BME280;42803;55.762;38.084;2023-04-10T07:50:15;100492.94;;;15.56;45.70
53011;BME280;42803;55.762;38.084;2023-04-10T07:52:44;100480.44;;;15.89;45.42
53011;BME280;42803;55.762;38.084;2023-04-10T07:55:14;100488.25;;;16.13;44.85
53011;BME280;42803;55.762;38.084;2023-04-10T07:57:43;100488.72;;;15.58;45.04
53011;BME280;42803;55.762;38.084;2023-04-10T08:00:13;100488.13;;;15.63;46.17
53011;BME280;42803;55.762;38.084;2023-04-10T08:02:44;100484.34;;;15.82;44.97
53011;BME280;42803;55.762;38.084;2023-04-10T08:05:14;100472.59;;;16.02;44.36
53011;BME280;42803;55.762;38.084;2023-04-10T08:07:45;100483.91;;;16.38;43.88
53011;BME280;42803;55.762;38.084;2023-04-10T08:10:15;100483.03;;;16.76;43.34
53011;BME280;42803;55.762;38.084;2023-04-10T08:12:45;100479.19;;;16.59;43.19
53011;BME280;42803;55.762;38.084;2023-04-10T08:15:14;100486.09;;;16.57;43.18
53011;BME280;42803;55.762;38.084;2023-04-10T08:17:43;100477.50;;;16.09;43.18
53011;BME280;42803;55.762;38.084;2023-04-10T08:20:12;100468.31;;;15.79;44.89
53011;BME280;42803;55.762;38.084;2023-04-10T08:22:43;100479.44;;;15.64;43.98
53011;BME280;42803;55.762;38.084;2023-04-10T08:25:15;100475.69;;;15.36;44.02
53011;BME280;42803;55.762;38.084;2023-04-10T08:27:47;100473.22;;;15.26;44.87
53011;BME280;42803;55.762;38.084;2023-04-10T08:30:19;100476.97;;;15.65;44.43
53011;BME280;42803;55.762;38.084;2023-04-10T08:32:50;100471.22;;;16.07;44.20
53011;BME280;42803;55.762;38.084;2023-04-10T08:35:19;100463.47;;;15.97;43.40
53011;BME280;42803;55.762;38.084;2023-04-10T08:37:50;100471.69;;;16.02;43.90
53011;BME280;42803;55.762;38.084;2023-04-10T08:40:39;100463.50;;;16.36;44.02
53011;BME280;42803;55.762;38.084;2023-04-10T08:43:11;100465.38;;;16.50;43.00
53011;BME280;42803;55.762;38.084;2023-04-10T08:45:40;100461.63;;;16.85;42.89
53011;BME280;42803;55.762;38.084;2023-04-10T08:48:10;100456.38;;;17.11;42.63
53011;BME280;42803;55.762;38.084;2023-04-10T08:50:44;100455.38;;;17.22;42.44
53011;BME280;42803;55.762;38.084;2023-04-10T08:53:23;100458.09;;;17.24;42.08
53011;BME280;42803;55.762;38.084;2023-04-10T08:55:57;100457.84;;;17.61;41.71
53011;BME280;42803;55.762;38.084;2023-04-10T08:58:30;100450.34;;;17.67;41.72
53011;BME280;42803;55.762;38.084;2023-04-10T09:01:00;100454.47;;;17.90;40.82
53011;BME280;42803;55.762;38.084;2023-04-10T09:03:30;100452.09;;;17.53;41.69
53011;BME280;42803;55.762;38.084;2023-04-10T09:06:01;100448.16;;;16.80;41.93
53011;BME280;42803;55.762;38.084;2023-04-10T09:08:35;100448.44;;;16.46;42.39
53011;BME280;42803;55.762;38.084;2023-04-10T09:11:05;100443.91;;;16.95;42.71
53011;BME280;42803;55.762;38.084;2023-04-10T09:13:36;100441.72;;;17.43;41.63
53011;BME280;42803;55.762;38.084;2023-04-10T09:16:07;100450.59;;;17.98;41.43
53011;BME280;42803;55.762;38.084;2023-04-10T09:18:45;100441.00;;;18.00;40.39
53011;BME280;42803;55.762;38.084;2023-04-10T09:21:16;100443.72;;;17.87;40.51
53011;BME280;42803;55.762;38.084;2023-04-10T09:23:48;100447.34;;;17.34;41.02
53011;BME280;42803;55.762;38.084;2023-04-10T09:26:25;100439.47;;;16.69;41.20
53011;BME280;42803;55.762;38.084;2023-04-10T09:31:45;100442.16;;;16.96;41.27
53011;BME280;42803;55.762;38.084;2023-04-10T09:34:16;100435.75;;;17.05;41.44
53011;BME280;42803;55.762;38.084;2023-04-10T09:36:53;100432.94;;;17.29;40.66
53011;BME280;42803;55.762;38.084;2023-04-10T09:39:32;100428.16;;;17.37;40.70
53011;BME280;42803;55.762;38.084;2023-04-10T09:42:02;100429.19;;;17.25;40.57
53011;BME280;42803;55.762;38.084;2023-04-10T09:44:33;100433.84;;;17.03;41.27
53011;BME280;42803;55.762;38.084;2023-04-10T09:47:16;100426.94;;;17.45;40.84
53011;BME280;42803;55.762;38.084;2023-04-10T09:49:46;100436.16;;;17.93;39.81
53011;BME280;42803;55.762;38.084;2023-04-10T09:52:19;100428.31;;;18.22;39.16
53011;BME280;42803;55.762;38.084;2023-04-10T09:54:57;100426.88;;;18.57;38.61
53011;BME280;42803;55.762;38.084;2023-04-10T09:57:31;100421.22;;;18.21;38.29
53011;BME280;42803;55.762;38.084;2023-04-10T10:00:02;100422.28;;;18.10;39.80
53011;BME280;42803;55.762;38.084;2023-04-10T10:02:36;100416.66;;;18.34;39.23
53011;BME280;42803;55.762;38.084;2023-04-10T10:07:57;100421.53;;;17.43;40.34
53011;BME280;42803;55.762;38.084;2023-04-10T10:10:47;100417.19;;;17.30;39.75
53011;BME280;42803;55.762;38.084;2023-04-10T10:13:40;100419.16;;;17.61;41.42
53011;BME280;42803;55.762;38.084;2023-04-10T10:16:16;100415.88;;;17.37;39.34
53011;BME280;42803;55.762;38.084;2023-04-10T10:18:53;100417.84;;;16.87;40.19
53011;BME280;42803;55.762;38.084;2023-04-10T10:21:25;100410.41;;;16.29;41.32
53011;BME280;42803;55.762;38.084;2023-04-10T10:23:57;100409.34;;;16.14;42.07
53011;BME280;42803;55.762;38.084;2023-04-10T10:26:29;100400.41;;;16.12;42.02
53011;BME280;42803;55.762;38.084;2023-04-10T10:29:02;100406.88;;;16.04;42.40
53011;BME280;42803;55.762;38.084;2023-04-10T10:31:36;100412.03;;;15.77;42.63
53011;BME280;42803;55.762;38.084;2023-04-10T10:34:08;100397.00;;;15.40;43.12
53011;BME280;42803;55.762;38.084;2023-04-10T10:37:20;100400.56;;;15.28;43.55
53011;BME280;42803;55.762;38.084;2023-04-10T10:44:38;100400.66;;;15.30;43.91
53011;BME280;42803;55.762;38.084;2023-04-10T10:47:16;100400.22;;;15.35;44.03
53011;BME280;42803;55.762;38.084;2023-04-10T10:49:55;100395.03;;;15.49;43.64
53011;BME280;42803;55.762;38.084;2023-04-10T10:52:43;100394.44;;;15.53;43.93
53011;BME280;42803;55.762;38.084;2023-04-10T10:55:31;100394.03;;;15.47;43.54
53011;BME280;42803;55.762;38.084;2023-04-10T10:58:05;100395.41;;;15.30;43.37
53011;BME280;42803;55.762;38.084;2023-04-10T11:01:07;100397.47;;;15.22;43.74
53011;BME280;42803;55.762;38.084;2023-04-10T11:03:40;100397.81;;;14.33;44.35
53011;BME280;42803;55.762;38.084;2023-04-10T11:06:16;100390.13;;;14.12;45.41
53011;BME280;42803;55.762;38.084;2023-04-10T11:08:50;100397.00;;;14.34;45.01
53011;BME280;42803;55.762;38.084;2023-04-10T11:11:21;100397.25;;;14.49;45.09
53011;BME280;42803;55.762;38.084;2023-04-10T11:14:12;100396.84;;;14.54;44.39
53011;BME280;42803;55.762;38.084;2023-04-10T11:16:53;100386.16;;;14.41;44.91
53011;BME280;42803;55.762;38.084;2023-04-10T11:19:22;100396.41;;;14.26;44.70
53011;BME280;42803;55.762;38.084;2023-04-10T11:22:07;100389.13;;;14.00;44.95
53011;BME280;42803;55.762;38.084;2023-04-10T11:25:02;100394.09;;;13.74;45.33
53011;BME280;42803;55.762;38.084;2023-04-10T11:27:41;100394.25;;;13.65;45.13
53011;BME280;42803;55.762;38.084;2023-04-10T11:30:28;100395.91;;;13.53;45.57
53011;BME280;42803;55.762;38.084;2023-04-10T11:33:01;100389.88;;;13.32;45.63
53011;BME280;42803;55.762;38.084;2023-04-10T11:35:31;100395.78;;;13.19;46.58
53011;BME280;42803;55.762;38.084;2023-04-10T11:38:08;100395.53;;;13.16;46.83
53011;BME280;42803;55.762;38.084;2023-04-10T11:41:08;100408.75;;;12.85;47.68
53011;BME280;42803;55.762;38.084;2023-04-10T11:43:37;100405.84;;;12.60;48.55
53011;BME280;42803;55.762;38.084;2023-04-10T11:46:06;100438.72;;;12.26;50.23
53011;BME280;42803;55.762;38.084;2023-04-10T11:48:37;100442.97;;;11.06;55.84
53011;BME280;42803;55.762;38.084;2023-04-10T11:51:11;100435.47;;;10.34;58.76
53011;BME280;42803;55.762;38.084;2023-04-10T11:53:41;100447.22;;;9.20;62.78
53011;BME280;42803;55.762;38.084;2023-04-10T11:56:18;100436.84;;;8.33;67.53
53011;BME280;42803;55.762;38.084;2023-04-10T11:58:49;100452.66;;;7.84;73.89
53011;BME280;42803;55.762;38.084;2023-04-10T12:01:21;100451.94;;;7.52;73.91
53011;BME280;42803;55.762;38.084;2023-04-10T12:03:52;100448.16;;;7.32;75.84
53011;BME280;42803;55.762;38.084;2023-04-10T12:06:23;100448.34;;;7.09;85.40
53011;BME280;42803;55.762;38.084;2023-04-10T12:09:14;100442.19;;;7.00;95.72
53011;BME280;42803;55.762;38.084;2023-04-10T12:11:50;100457.66;;;6.83;99.29
53011;BME280;42803;55.762;38.084;2023-04-10T12:14:20;100462.78;;;6.74;100.00
53011;BME280;42803;55.762;38.084;2023-04-10T12:19:40;100479.69;;;6.55;100.00
53011;BME280;42803;55.762;38.084;2023-04-10T12:22:27;100484.41;;;6.50;100.00
53011;BME280;42803;55.762;38.084;2023-04-10T12:24:56;100476.47;;;6.49;100.00
53011;BME280;42803;55.762;38.084;2023-04-10T12:27:26;100483.00;;;6.45;100.00
53011;BME280;42803;55.762;38.084;2023-04-10T12:29:57;100491.28;;;6.34;100.00
53011;BME280;42803;55.762;38.084;2023-04-10T12:32:26;100488.56;;;6.25;100.00
53011;BME280;42803;55.762;38.084;2023-04-10T12:34:57;100501.94;;;6.21;100.00
53011;BME280;42803;55.762;38.084;2023-04-10T12:37:47;100505.88;;;6.18;100.00
53011;BME280;42803;55.762;38.084;2023-04-10T12:40:34;100517.28;;;6.27;100.00
53011;BME280;42803;55.762;38.084;2023-04-10T12:43:04;100506.91;;;6.27;100.00
53011;BME280;42803;55.762;38.084;2023-04-10T12:45:43;100499.56;;;6.23;100.00
53011;BME280;42803;55.762;38.084;2023-04-10T12:48:21;100496.88;;;6.30;100.00
53011;BME280;42803;55.762;38.084;2023-04-10T12:50:52;100506.41;;;6.38;100.00
53011;BME280;42803;55.762;38.084;2023-04-10T12:53:22;100495.56;;;6.33;100.00
53011;BME280;42803;55.762;38.084;2023-04-10T12:55:59;100496.88;;;6.30;100.00
53011;BME280;42803;55.762;38.084;2023-04-10T12:58:30;100502.28;;;6.24;100.00
53011;BME280;42803;55.762;38.084;2023-04-10T13:01:17;100503.69;;;6.14;100.00
53011;BME280;42803;55.762;38.084;2023-04-10T13:03:46;100507.81;;;6.12;100.00
53011;BME280;42803;55.762;38.084;2023-04-10T13:06:17;100507.47;;;6.08;100.00
53011;BME280;42803;55.762;38.084;2023-04-10T13:09:01;100504.88;;;6.08;100.00
53011;BME280;42803;55.762;38.084;2023-04-10T13:11:30;100502.69;;;6.04;100.00
53011;BME280;42803;55.762;38.084;2023-04-10T13:13:59;100508.47;;;6.02;100.00
53011;BME280;42803;55.762;38.084;2023-04-10T13:16:28;100506.28;;;5.98;100.00
53011;BME280;42803;55.762;38.084;2023-04-10T13:18:57;100502.78;;;5.97;100.00
53011;BME280;42803;55.762;38.084;2023-04-10T13:21:28;100506.47;;;5.99;100.00
53011;BME280;42803;55.762;38.084;2023-04-10T13:23:57;100502.69;;;6.04;100.00
53011;BME280;42803;55.762;38.084;2023-04-10T13:26:26;100496.00;;;6.06;100.00
53011;BME280;42803;55.762;38.084;2023-04-10T13:29:13;100479.31;;;6.12;100.00
53011;BME280;42803;55.762;38.084;2023-04-10T13:31:42;100475.03;;;6.12;100.00
53011;BME280;42803;55.762;38.084;2023-04-10T13:34:11;100474.78;;;6.18;100.00
53011;BME280;42803;55.762;38.084;2023-04-10T13:36:41;100459.22;;;6.18;100.00
53011;BME280;42803;55.762;38.084;2023-04-10T13:39:11;100466.00;;;6.24;100.00
53011;BME280;42803;55.762;38.084;2023-04-10T13:41:40;100467.59;;;6.31;100.00
53011;BME280;42803;55.762;38.084;2023-04-10T13:44:09;100465.25;;;6.41;100.00
53011;BME280;42803;55.762;38.084;2023-04-10T13:46:38;100453.72;;;6.46;100.00